DLH456 EDDF-KLAX
Flight info
| Callsign | DLH456 |
|---|---|
| Flight time | N/A |
| Altitude | 30000 |
| Route | OBOKA3D OBOKA Z28 DIBIR DCT BUDIP DCT AMGOD DCT GODOS DCT ERAKA/M082F310 DCT 59N015W 59N020W 59N030W 59N040W 59N050W DCT AVUTI/N0487F320 DCT KLIPS DCT GRAND/N0484F340 DCT 55N086W DCT KALLU DCT MOT DCT BOY DCT MLF J107 BLD DCT HAKMN ANJLL4 |
| Aircraft | A346/H-SDE2E3FGHIJ3J4J5M1RWXY/LB1D1 |
Departure
| Time | N/A |
|---|---|
| Airport | Frankfurt Main Airport (EDDF) |
Arrival
| Time | 2026-04-21 19:10 |
|---|---|
| Airport | Los Angeles International Airport (KLAX) |
| Time | Latitude | Longitude | Altitude | Speed | Heading |
|---|---|---|---|---|---|
| 2026-04-21 18:52 | 34.28337 | -116.80433 | 30168 ft | 369 kts | 242° |
| 2026-04-21 18:52 | 34.27215 | -116.83220 | 29641 ft | 367 kts | 242° |
| 2026-04-21 18:52 | 34.26097 | -116.85986 | 29083 ft | 365 kts | 242° |
| 2026-04-21 18:53 | 34.24987 | -116.88733 | 28600 ft | 362 kts | 242° |
| 2026-04-21 18:53 | 34.23883 | -116.91467 | 28121 ft | 359 kts | 242° |
| 2026-04-21 18:53 | 34.22788 | -116.94169 | 27572 ft | 357 kts | 242° |
| 2026-04-21 18:53 | 34.21721 | -116.96877 | 26921 ft | 355 kts | 244° |
| 2026-04-21 18:54 | 34.21082 | -116.98741 | 26531 ft | 353 kts | 246° |
| 2026-04-21 18:54 | 34.20276 | -117.01499 | 25912 ft | 351 kts | 248° |
| 2026-04-21 18:54 | 34.19501 | -117.04335 | 25281 ft | 350 kts | 248° |
| 2026-04-21 18:54 | 34.18741 | -117.07121 | 24648 ft | 348 kts | 248° |
| 2026-04-21 18:55 | 34.17978 | -117.09924 | 24198 ft | 343 kts | 248° |
| 2026-04-21 18:55 | 34.17238 | -117.12653 | 23604 ft | 342 kts | 248° |
| 2026-04-21 18:55 | 34.16493 | -117.15396 | 22795 ft | 342 kts | 247° |
| 2026-04-21 18:55 | 34.15750 | -117.18110 | 21904 ft | 338 kts | 248° |
| 2026-04-21 18:56 | 34.15009 | -117.20800 | 21096 ft | 333 kts | 248° |
| 2026-04-21 18:56 | 34.14285 | -117.23433 | 20308 ft | 328 kts | 248° |
| 2026-04-21 18:56 | 34.13568 | -117.26037 | 19502 ft | 324 kts | 247° |
| 2026-04-21 18:56 | 34.12858 | -117.28612 | 18736 ft | 321 kts | 247° |
| 2026-04-21 18:57 | 34.12155 | -117.31161 | 17882 ft | 319 kts | 247° |
| 2026-04-21 18:57 | 34.11456 | -117.33692 | 17058 ft | 315 kts | 247° |
| 2026-04-21 18:57 | 34.10766 | -117.36192 | 16264 ft | 311 kts | 247° |
| 2026-04-21 18:57 | 34.10107 | -117.38667 | 15491 ft | 308 kts | 248° |
| 2026-04-21 18:58 | 34.09495 | -117.41128 | 14755 ft | 304 kts | 248° |
| 2026-04-21 18:58 | 34.08884 | -117.43602 | 14235 ft | 297 kts | 248° |
| 2026-04-21 18:58 | 34.08302 | -117.45947 | 14015 ft | 287 kts | 248° |
| 2026-04-21 18:58 | 34.07725 | -117.48246 | 13546 ft | 287 kts | 247° |
| 2026-04-21 18:59 | 34.07054 | -117.50510 | 13042 ft | 285 kts | 244° |
| 2026-04-21 18:59 | 34.06283 | -117.52703 | 12620 ft | 283 kts | 243° |
| 2026-04-21 18:59 | 34.05503 | -117.54886 | 12191 ft | 282 kts | 243° |
| 2026-04-21 18:59 | 34.04725 | -117.57055 | 11740 ft | 281 kts | 243° |
| 2026-04-21 19:00 | 34.03947 | -117.59221 | 11307 ft | 281 kts | 243° |
| 2026-04-21 19:00 | 34.03165 | -117.61395 | 10907 ft | 279 kts | 244° |
| 2026-04-21 19:00 | 34.02400 | -117.63519 | 10599 ft | 275 kts | 244° |
| 2026-04-21 19:00 | 34.01644 | -117.65618 | 10333 ft | 269 kts | 244° |
| 2026-04-21 19:01 | 34.00971 | -117.67702 | 10150 ft | 263 kts | 250° |
| 2026-04-21 19:01 | 34.00558 | -117.69831 | 9989 ft | 261 kts | 257° |
| 2026-04-21 19:01 | 34.00318 | -117.72012 | 9695 ft | 261 kts | 259° |
| 2026-04-21 19:01 | 34.00107 | -117.74191 | 9404 ft | 261 kts | 259° |
| 2026-04-21 19:02 | 33.99898 | -117.76371 | 9113 ft | 261 kts | 259° |
| 2026-04-21 19:02 | 33.99684 | -117.78571 | 8859 ft | 260 kts | 259° |
| 2026-04-21 19:02 | 33.99471 | -117.80739 | 8601 ft | 260 kts | 260° |
| 2026-04-21 19:02 | 33.99259 | -117.82905 | 8355 ft | 259 kts | 260° |
| 2026-04-21 19:03 | 33.99051 | -117.85063 | 8108 ft | 259 kts | 260° |
| 2026-04-21 19:03 | 33.98841 | -117.87227 | 7850 ft | 259 kts | 260° |
| 2026-04-21 19:03 | 33.98630 | -117.89394 | 7582 ft | 259 kts | 261° |
| 2026-04-21 19:03 | 33.98490 | -117.91571 | 7332 ft | 259 kts | 265° |
| 2026-04-21 19:04 | 33.98455 | -117.93742 | 7059 ft | 258 kts | 266° |
| 2026-04-21 19:04 | 33.98432 | -117.95905 | 6761 ft | 255 kts | 266° |
| 2026-04-21 19:04 | 33.98397 | -117.98036 | 6441 ft | 253 kts | 266° |
| 2026-04-21 19:04 | 33.98356 | -118.00170 | 6068 ft | 253 kts | 266° |
| 2026-04-21 19:05 | 33.98309 | -118.02291 | 5704 ft | 252 kts | 266° |
| 2026-04-21 19:05 | 33.98259 | -118.04418 | 5339 ft | 252 kts | 266° |
| 2026-04-21 19:05 | 33.98207 | -118.06612 | 4992 ft | 253 kts | 266° |
| 2026-04-21 19:05 | 33.98153 | -118.08796 | 4635 ft | 252 kts | 266° |
| 2026-04-21 19:06 | 33.98100 | -118.10864 | 4278 ft | 253 kts | 265° |
| 2026-04-21 19:06 | 33.97963 | -118.13001 | 3957 ft | 252 kts | 261° |
| 2026-04-21 19:06 | 33.97757 | -118.15122 | 3650 ft | 251 kts | 261° |
| 2026-04-21 19:06 | 33.97545 | -118.17223 | 3341 ft | 250 kts | 261° |
| 2026-04-21 19:07 | 33.97337 | -118.19295 | 3041 ft | 248 kts | 261° |
| 2026-04-21 19:07 | 33.97126 | -118.21369 | 2736 ft | 247 kts | 261° |
| 2026-04-21 19:07 | 33.96919 | -118.23417 | 2434 ft | 245 kts | 260° |
| 2026-04-21 19:07 | 33.96711 | -118.25455 | 2197 ft | 240 kts | 260° |
| 2026-04-21 19:08 | 33.96518 | -118.27394 | 2178 ft | 227 kts | 261° |
| 2026-04-21 19:08 | 33.96334 | -118.29288 | 1964 ft | 222 kts | 259° |
| 2026-04-21 19:08 | 33.96143 | -118.31161 | 1660 ft | 213 kts | 261° |
| 2026-04-21 19:08 | 33.95966 | -118.32873 | 1332 ft | 200 kts | 260° |
| 2026-04-21 19:09 | 33.95800 | -118.34482 | 1058 ft | 183 kts | 261° |
| 2026-04-21 19:09 | 33.95653 | -118.35947 | 838 ft | 166 kts | 258° |
| 2026-04-21 19:09 | 33.95501 | -118.37290 | 612 ft | 158 kts | 262° |
| 2026-04-21 19:09 | 33.95361 | -118.38627 | 433 ft | 159 kts | 262° |
| 2026-04-21 19:10 | 33.95232 | -118.39960 | 201 ft | 158 kts | 263° |
| 2026-04-21 19:10 | 33.95105 | -118.41213 | 103 ft | 125 kts | 263° |
| 2026-04-21 19:10 | 33.95024 | -118.42012 | 103 ft | 68 kts | 263° |
| 2026-04-21 19:10 | 33.94983 | -118.42392 | 103 ft | 32 kts | 258° |
| 2026-04-21 19:11 | 33.94894 | -118.42616 | 104 ft | 28 kts | 233° |
| 2026-04-21 19:11 | 33.94783 | -118.42744 | 108 ft | 17 kts | 209° |
| 2026-04-21 19:11 | 33.94668 | -118.42773 | 106 ft | 12 kts | 170° |
| 2026-04-21 19:11 | 33.94637 | -118.42680 | 104 ft | 15 kts | 83° |
| 2026-04-21 19:12 | 33.94647 | -118.42586 | 103 ft | 17 kts | 83° |
| 2026-04-21 19:12 | 33.94669 | -118.42370 | 103 ft | 21 kts | 83° |
| 2026-04-21 19:12 | 33.94688 | -118.42179 | 105 ft | 24 kts | 83° |
| 2026-04-21 19:12 | 33.94708 | -118.41996 | 102 ft | 20 kts | 83° |
| 2026-04-21 19:13 | 33.94722 | -118.41849 | 101 ft | 17 kts | 84° |
| 2026-04-21 19:13 | 33.94738 | -118.41690 | 101 ft | 20 kts | 83° |
| 2026-04-21 19:13 | 33.94752 | -118.41556 | 102 ft | 6 kts | 83° |
| 2026-04-21 19:13 | 33.94759 | -118.41490 | 105 ft | 9 kts | 83° |
| 2026-04-21 19:14 | 33.94747 | -118.41403 | 103 ft | 12 kts | 134° |
| 2026-04-21 19:14 | 33.94654 | -118.41377 | 102 ft | 15 kts | 173° |
| 2026-04-21 19:14 | 33.94535 | -118.41361 | 102 ft | 18 kts | 173° |
| 2026-04-21 19:14 | 33.94392 | -118.41339 | 102 ft | 21 kts | 173° |
| 2026-04-21 19:15 | 33.94232 | -118.41316 | 103 ft | 24 kts | 173° |
| 2026-04-21 19:15 | 33.94103 | -118.41297 | 102 ft | 13 kts | 171° |
| 2026-04-21 19:15 | 33.94052 | -118.41239 | 103 ft | 10 kts | 109° |
| 2026-04-21 19:15 | 33.94022 | -118.41181 | 102 ft | 6 kts | 120° |
| 2026-04-21 19:16 | 33.94016 | -118.41134 | 105 ft | 4 kts | 89° |
| 2026-04-21 19:16 | 33.94018 | -118.41104 | 103 ft | 3 kts | 84° |
| 2026-04-21 19:16 | 33.94019 | -118.41090 | 102 ft | 0 kts | 83° |
| 2026-04-21 19:16 | 33.94020 | -118.41085 | 102 ft | 0 kts | 83° |